sensor_id;sensor_type;location;lat;lon;timestamp;temperature;humidity
3736;DHT22;1883;48.202;16.310;2023-05-10T00:00:03;12.20;71.50
3736;DHT22;1883;48.202;16.310;2023-05-10T00:02:31;12.10;71.50
3736;DHT22;1883;48.202;16.310;2023-05-10T00:04:59;12.10;71.50
3736;DHT22;1883;48.202;16.310;2023-05-10T00:07:26;12.10;71.50
3736;DHT22;1883;48.202;16.310;2023-05-10T00:09:53;12.00;71.40
3736;DHT22;1883;48.202;16.310;2023-05-10T00:15:13;12.10;71.40
3736;DHT22;1883;48.202;16.310;2023-05-10T00:27:31;11.90;71.20
3736;DHT22;1883;48.202;16.310;2023-05-10T00:29:58;11.90;71.10
3736;DHT22;1883;48.202;16.310;2023-05-10T00:32:51;11.90;71.00
3736;DHT22;1883;48.202;16.310;2023-05-10T00:36:08;11.90;71.00
3736;DHT22;1883;48.202;16.310;2023-05-10T00:39:19;11.90;71.00
3736;DHT22;1883;48.202;16.310;2023-05-10T00:42:28;11.80;70.90
3736;DHT22;1883;48.202;16.310;2023-05-10T00:45:43;11.80;70.80
3736;DHT22;1883;48.202;16.310;2023-05-10T00:48:11;11.70;70.70
3736;DHT22;1883;48.202;16.310;2023-05-10T00:50:38;11.70;70.70
3736;DHT22;1883;48.202;16.310;2023-05-10T01:09:28;11.70;70.50
3736;DHT22;1883;48.202;16.310;2023-05-10T01:11:55;11.60;70.40
3736;DHT22;1883;48.202;16.310;2023-05-10T01:14:23;11.60;70.40
3736;DHT22;1883;48.202;16.310;2023-05-10T01:16:52;11.60;70.30
3736;DHT22;1883;48.202;16.310;2023-05-10T01:19:25;11.50;70.30
3736;DHT22;1883;48.202;16.310;2023-05-10T01:22:02;11.60;70.30
3736;DHT22;1883;48.202;16.310;2023-05-10T01:25:11;11.60;70.20
3736;DHT22;1883;48.202;16.310;2023-05-10T01:31:32;11.40;70.00
3736;DHT22;1883;48.202;16.310;2023-05-10T01:34:35;11.50;70.00
3736;DHT22;1883;48.202;16.310;2023-05-10T01:37:07;11.30;69.90
3736;DHT22;1883;48.202;16.310;2023-05-10T01:39:40;11.30;69.80
3736;DHT22;1883;48.202;16.310;2023-05-10T01:42:15;11.30;69.90
3736;DHT22;1883;48.202;16.310;2023-05-10T01:44:46;11.30;69.80
3736;DHT22;1883;48.202;16.310;2023-05-10T01:50:03;11.30;69.50
3736;DHT22;1883;48.202;16.310;2023-05-10T01:52:33;11.20;69.70
3736;DHT22;1883;48.202;16.310;2023-05-10T01:55:06;11.20;69.60
3736;DHT22;1883;48.202;16.310;2023-05-10T01:57:34;11.20;69.50
3736;DHT22;1883;48.202;16.310;2023-05-10T02:00:03;11.10;69.50
3736;DHT22;1883;48.202;16.310;2023-05-10T02:02:35;11.10;69.50
3736;DHT22;1883;48.202;16.310;2023-05-10T02:05:06;11.20;69.50
3736;DHT22;1883;48.202;16.310;2023-05-10T02:07:36;11.10;69.40
3736;DHT22;1883;48.202;16.310;2023-05-10T02:10:05;11.10;69.40
3736;DHT22;1883;48.202;16.310;2023-05-10T02:12:35;11.00;69.30
3736;DHT22;1883;48.202;16.310;2023-05-10T02:15:05;11.00;69.30
3736;DHT22;1883;48.202;16.310;2023-05-10T02:17:32;11.00;69.30
3736;DHT22;1883;48.202;16.310;2023-05-10T02:20:01;10.90;69.20
3736;DHT22;1883;48.202;16.310;2023-05-10T02:22:31;10.90;69.20
3736;DHT22;1883;48.202;16.310;2023-05-10T02:25:00;10.90;69.20
3736;DHT22;1883;48.202;16.310;2023-05-10T02:27:28;10.90;69.20
3736;DHT22;1883;48.202;16.310;2023-05-10T02:29:56;10.90;69.10
3736;DHT22;1883;48.202;16.310;2023-05-10T02:32:25;10.90;69.10
3736;DHT22;1883;48.202;16.310;2023-05-10T02:34:53;10.80;69.10
3736;DHT22;1883;48.202;16.310;2023-05-10T02:37:21;10.80;68.90
3736;DHT22;1883;48.202;16.310;2023-05-10T02:43:01;10.80;68.90
3736;DHT22;1883;48.202;16.310;2023-05-10T02:45:31;10.70;68.90
3736;DHT22;1883;48.202;16.310;2023-05-10T02:54:06;10.70;68.80
3736;DHT22;1883;48.202;16.310;2023-05-10T03:02:10;10.60;68.60
3736;DHT22;1883;48.202;16.310;2023-05-10T03:08:01;10.60;68.50
3736;DHT22;1883;48.202;16.310;2023-05-10T03:10:58;10.70;68.50
3736;DHT22;1883;48.202;16.310;2023-05-10T03:13:36;10.60;68.40
3736;DHT22;1883;48.202;16.310;2023-05-10T03:16:08;10.60;68.50
3736;DHT22;1883;48.202;16.310;2023-05-10T03:18:42;10.60;68.40
3736;DHT22;1883;48.202;16.310;2023-05-10T03:21:12;10.60;68.40
3736;DHT22;1883;48.202;16.310;2023-05-10T03:23:43;10.50;68.30
3736;DHT22;1883;48.202;16.310;2023-05-10T03:26:17;10.50;68.20
3736;DHT22;1883;48.202;16.310;2023-05-10T03:28:45;10.50;68.20
3736;DHT22;1883;48.202;16.310;2023-05-10T03:31:12;10.50;68.10
3736;DHT22;1883;48.202;16.310;2023-05-10T03:33:47;10.40;68.10
3736;DHT22;1883;48.202;16.310;2023-05-10T03:36:14;10.50;68.10
3736;DHT22;1883;48.202;16.310;2023-05-10T03:38:41;10.40;68.00
3736;DHT22;1883;48.202;16.310;2023-05-10T03:41:08;10.40;68.00
3736;DHT22;1883;48.202;16.310;2023-05-10T03:43:35;10.40;67.90
3736;DHT22;1883;48.202;16.310;2023-05-10T03:46:02;10.50;67.90
3736;DHT22;1883;48.202;16.310;2023-05-10T03:48:29;10.40;67.80
3736;DHT22;1883;48.202;16.310;2023-05-10T03:50:58;10.50;67.90
3736;DHT22;1883;48.202;16.310;2023-05-10T03:53:25;10.50;67.90
3736;DHT22;1883;48.202;16.310;2023-05-10T03:55:52;10.50;67.90
3736;DHT22;1883;48.202;16.310;2023-05-10T03:58:19;10.60;67.90
3736;DHT22;1883;48.202;16.310;2023-05-10T04:04:28;10.70;67.80
